sensor_id;sensor_type;location;lat;lon;timestamp;P1;durP1;ratioP1;P2;durP2;ratioP2
14015;SDS011;7083;48.854;9.158;2023-08-01T00:01:32;6.53;;;4.47;;
14015;SDS011;7083;48.854;9.158;2023-08-01T00:03:59;5.03;;;4.63;;
14015;SDS011;7083;48.854;9.158;2023-08-01T00:06:26;6.17;;;4.53;;
14015;SDS011;7083;48.854;9.158;2023-08-01T00:08:52;6.33;;;4.63;;
14015;SDS011;7083;48.854;9.158;2023-08-01T00:11:20;4.63;;;4.23;;
14015;SDS011;7083;48.854;9.158;2023-08-01T00:13:47;6.43;;;4.37;;
14015;SDS011;7083;48.854;9.158;2023-08-01T00:16:14;6.77;;;4.80;;
14015;SDS011;7083;48.854;9.158;2023-08-01T00:18:40;5.80;;;5.10;;
14015;SDS011;7083;48.854;9.158;2023-08-01T00:21:07;4.80;;;4.50;;
14015;SDS011;7083;48.854;9.158;2023-08-01T00:23:35;7.80;;;4.90;;
14015;SDS011;7083;48.854;9.158;2023-08-01T00:26:02;5.03;;;4.63;;
14015;SDS011;7083;48.854;9.158;2023-08-01T00:28:30;4.73;;;4.30;;
14015;SDS011;7083;48.854;9.158;2023-08-01T00:31:04;6.60;;;4.60;;
14015;SDS011;7083;48.854;9.158;2023-08-01T00:33:31;5.20;;;4.70;;
14015;SDS011;7083;48.854;9.158;2023-08-01T00:35:58;5.10;;;4.60;;
14015;SDS011;7083;48.854;9.158;2023-08-01T00:38:24;5.17;;;4.10;;
14015;SDS011;7083;48.854;9.158;2023-08-01T00:40:51;6.90;;;4.93;;
14015;SDS011;7083;48.854;9.158;2023-08-01T00:43:18;4.43;;;4.07;;
14015;SDS011;7083;48.854;9.158;2023-08-01T00:45:46;4.30;;;4.00;;
14015;SDS011;7083;48.854;9.158;2023-08-01T00:48:13;6.13;;;4.40;;
14015;SDS011;7083;48.854;9.158;2023-08-01T00:50:40;4.63;;;4.33;;
14015;SDS011;7083;48.854;9.158;2023-08-01T00:53:07;4.67;;;3.90;;
14015;SDS011;7083;48.854;9.158;2023-08-01T00:55:33;5.10;;;4.70;;
14015;SDS011;7083;48.854;9.158;2023-08-01T00:58:00;5.23;;;4.73;;
14015;SDS011;7083;48.854;9.158;2023-08-01T01:00:27;7.00;;;5.03;;
14015;SDS011;7083;48.854;9.158;2023-08-01T01:02:56;4.87;;;4.40;;
14015;SDS011;7083;48.854;9.158;2023-08-01T01:05:23;5.23;;;4.53;;
14015;SDS011;7083;48.854;9.158;2023-08-01T01:07:51;6.13;;;4.50;;
14015;SDS011;7083;48.854;9.158;2023-08-01T01:10:18;5.47;;;4.97;;
14015;SDS011;7083;48.854;9.158;2023-08-01T01:12:45;5.93;;;4.50;;
14015;SDS011;7083;48.854;9.158;2023-08-01T01:15:12;5.87;;;4.83;;
14015;SDS011;7083;48.854;9.158;2023-08-01T01:17:39;5.13;;;4.57;;
14015;SDS011;7083;48.854;9.158;2023-08-01T01:20:07;5.77;;;4.90;;
14015;SDS011;7083;48.854;9.158;2023-08-01T01:22:36;4.97;;;4.13;;
14015;SDS011;7083;48.854;9.158;2023-08-01T01:25:03;6.17;;;5.37;;
14015;SDS011;7083;48.854;9.158;2023-08-01T01:27:33;5.27;;;4.87;;
14015;SDS011;7083;48.854;9.158;2023-08-01T01:30:00;5.90;;;5.00;;
14015;SDS011;7083;48.854;9.158;2023-08-01T01:32:29;4.77;;;4.37;;
14015;SDS011;7083;48.854;9.158;2023-08-01T01:34:56;4.97;;;4.60;;
14015;SDS011;7083;48.854;9.158;2023-08-01T01:37:23;6.07;;;5.03;;
14015;SDS011;7083;48.854;9.158;2023-08-01T01:39:51;4.70;;;4.37;;
14015;SDS011;7083;48.854;9.158;2023-08-01T01:42:18;6.90;;;4.27;;
14015;SDS011;7083;48.854;9.158;2023-08-01T01:44:44;7.73;;;5.53;;
14015;SDS011;7083;48.854;9.158;2023-08-01T01:47:11;4.63;;;4.23;;
14015;SDS011;7083;48.854;9.158;2023-08-01T01:49:38;5.80;;;5.10;;
14015;SDS011;7083;48.854;9.158;2023-08-01T01:52:05;5.00;;;4.20;;
14015;SDS011;7083;48.854;9.158;2023-08-01T01:54:32;4.50;;;4.10;;
14015;SDS011;7083;48.854;9.158;2023-08-01T01:57:00;4.57;;;4.23;;
14015;SDS011;7083;48.854;9.158;2023-08-01T01:59:26;5.47;;;5.07;;
14015;SDS011;7083;48.854;9.158;2023-08-01T02:01:53;5.67;;;5.17;;
14015;SDS011;7083;48.854;9.158;2023-08-01T02:04:20;5.13;;;4.63;;
14015;SDS011;7083;48.854;9.158;2023-08-01T02:06:46;6.27;;;4.87;;
14015;SDS011;7083;48.854;9.158;2023-08-01T02:09:13;4.67;;;4.37;;
14015;SDS011;7083;48.854;9.158;2023-08-01T02:11:40;4.80;;;4.50;;
14015;SDS011;7083;48.854;9.158;2023-08-01T02:14:08;7.43;;;5.30;;
14015;SDS011;7083;48.854;9.158;2023-08-01T02:16:34;4.73;;;4.23;;
14015;SDS011;7083;48.854;9.158;2023-08-01T02:19:01;4.87;;;4.40;;
14015;SDS011;7083;48.854;9.158;2023-08-01T02:21:27;6.40;;;5.23;;
14015;SDS011;7083;48.854;9.158;2023-08-01T02:23:54;4.90;;;4.43;;
14015;SDS011;7083;48.854;9.158;2023-08-01T02:26:21;6.37;;;4.70;;
14015;SDS011;7083;48.854;9.158;2023-08-01T02:28:49;5.10;;;4.70;;
14015;SDS011;7083;48.854;9.158;2023-08-01T02:31:17;5.03;;;4.60;;
14015;SDS011;7083;48.854;9.158;2023-08-01T02:33:43;4.90;;;4.50;;
14015;SDS011;7083;48.854;9.158;2023-08-01T02:36:10;5.67;;;5.17;;
14015;SDS011;7083;48.854;9.158;2023-08-01T02:38:37;5.20;;;4.80;;
14015;SDS011;7083;48.854;9.158;2023-08-01T02:41:03;5.50;;;5.00;;
14015;SDS011;7083;48.854;9.158;2023-08-01T02:43:30;4.80;;;4.50;;
14015;SDS011;7083;48.854;9.158;2023-08-01T02:45:56;5.63;;;5.20;;
14015;SDS011;7083;48.854;9.158;2023-08-01T02:48:26;5.13;;;4.83;;
14015;SDS011;7083;48.854;9.158;2023-08-01T02:50:53;5.70;;;5.10;;
14015;SDS011;7083;48.854;9.158;2023-08-01T02:53:19;7.00;;;5.00;;
14015;SDS011;7083;48.854;9.158;2023-08-01T02:55:46;5.97;;;5.40;;
14015;SDS011;7083;48.854;9.158;2023-08-01T02:58:13;6.17;;;5.57;;
14015;SDS011;7083;48.854;9.158;2023-08-01T03:00:39;5.03;;;4.63;;
14015;SDS011;7083;48.854;9.158;2023-08-01T03:03:06;5.80;;;5.30;;
14015;SDS011;7083;48.854;9.158;2023-08-01T03:05:36;5.43;;;4.93;;
14015;SDS011;7083;48.854;9.158;2023-08-01T03:08:03;5.67;;;5.27;;
14015;SDS011;7083;48.854;9.158;2023-08-01T03:10:30;5.63;;;5.07;;
14015;SDS011;7083;48.854;9.158;2023-08-01T03:12:57;6.07;;;4.80;;
14015;SDS011;7083;48.854;9.158;2023-08-01T03:15:23;5.87;;;5.37;;
14015;SDS011;7083;48.854;9.158;2023-08-01T03:17:50;6.73;;;5.90;;
14015;SDS011;7083;48.854;9.158;2023-08-01T03:20:17;5.47;;;4.93;;
14015;SDS011;7083;48.854;9.158;2023-08-01T03:22:45;5.70;;;5.30;;
14015;SDS011;7083;48.854;9.158;2023-08-01T03:25:11;6.03;;;4.83;;
14015;SDS011;7083;48.854;9.158;2023-08-01T03:27:38;7.30;;;5.67;;
14015;SDS011;7083;48.854;9.158;2023-08-01T03:30:05;6.93;;;5.93;;
14015;SDS011;7083;48.854;9.158;2023-08-01T03:32:33;6.50;;;6.00;;
14015;SDS011;7083;48.854;9.158;2023-08-01T03:35:00;6.17;;;5.63;;
14015;SDS011;7083;48.854;9.158;2023-08-01T03:37:27;6.07;;;5.57;;
14015;SDS011;7083;48.854;9.158;2023-08-01T03:39:55;6.07;;;5.30;;
14015;SDS011;7083;48.854;9.158;2023-08-01T03:42:22;6.03;;;4.90;;
14015;SDS011;7083;48.854;9.158;2023-08-01T03:44:49;6.07;;;5.57;;
14015;SDS011;7083;48.854;9.158;2023-08-01T03:47:15;6.03;;;5.43;;
14015;SDS011;7083;48.854;9.158;2023-08-01T03:49:42;6.10;;;5.60;;
14015;SDS011;7083;48.854;9.158;2023-08-01T03:52:08;5.60;;;5.20;;
14015;SDS011;7083;48.854;9.158;2023-08-01T03:54:35;5.77;;;5.27;;
14015;SDS011;7083;48.854;9.158;2023-08-01T03:57:03;5.97;;;5.37;;
14015;SDS011;7083;48.854;9.158;2023-08-01T03:59:31;5.77;;;5.13;;
14015;SDS011;7083;48.854;9.158;2023-08-01T04:01:57;5.10;;;4.70;;
14015;SDS011;7083;48.854;9.158;2023-08-01T04:04:24;4.90;;;4.47;;
14015;SDS011;7083;48.854;9.158;2023-08-01T04:06:50;5.20;;;4.43;;
14015;SDS011;7083;48.854;9.158;2023-08-01T04:09:17;6.57;;;5.97;;
14015;SDS011;7083;48.854;9.158;2023-08-01T04:11:44;6.03;;;5.10;;
14015;SDS011;7083;48.854;9.158;2023-08-01T04:14:12;3.80;;;3.53;;
14015;SDS011;7083;48.854;9.158;2023-08-01T04:16:38;6.57;;;4.37;;
14015;SDS011;7083;48.854;9.158;2023-08-01T04:19:05;5.67;;;4.70;;
14015;SDS011;7083;48.854;9.158;2023-08-01T04:21:32;6.27;;;4.50;;
14015;SDS011;7083;48.854;9.158;2023-08-01T04:23:58;5.20;;;4.13;;
14015;SDS011;7083;48.854;9.158;2023-08-01T04:26:25;7.27;;;4.30;;
14015;SDS011;7083;48.854;9.158;2023-08-01T04:28:52;4.77;;;4.27;;
14015;SDS011;7083;48.854;9.158;2023-08-01T04:31:20;6.07;;;4.03;;
14015;SDS011;7083;48.854;9.158;2023-08-01T04:33:46;4.73;;;3.73;;
14015;SDS011;7083;48.854;9.158;2023-08-01T04:36:13;6.73;;;4.33;;
14015;SDS011;7083;48.854;9.158;2023-08-01T04:38:40;5.90;;;4.43;;
14015;SDS011;7083;48.854;9.158;2023-08-01T04:41:07;5.23;;;4.73;;
14015;SDS011;7083;48.854;9.158;2023-08-01T04:43:34;5.23;;;4.57;;
14015;SDS011;7083;48.854;9.158;2023-08-01T04:46:01;5.37;;;4.57;;
14015;SDS011;7083;48.854;9.158;2023-08-01T04:48:29;4.17;;;3.77;;
14015;SDS011;7083;48.854;9.158;2023-08-01T04:50:55;4.10;;;3.70;;
14015;SDS011;7083;48.854;9.158;2023-08-01T04:53:22;4.23;;;3.57;;
14015;SDS011;7083;48.854;9.158;2023-08-01T04:55:49;4.00;;;3.67;;
14015;SDS011;7083;48.854;9.158;2023-08-01T04:58:16;3.27;;;3.07;;
14015;SDS011;7083;48.854;9.158;2023-08-01T05:00:43;3.97;;;3.53;;
14015;SDS011;7083;48.854;9.158;2023-08-01T05:03:09;4.63;;;3.43;;
14015;SDS011;7083;48.854;9.158;2023-08-01T05:05:37;4.00;;;3.70;;
14015;SDS011;7083;48.854;9.158;2023-08-01T05:08:04;4.77;;;4.27;;
14015;SDS011;7083;48.854;9.158;2023-08-01T05:10:31;5.60;;;3.70;;
14015;SDS011;7083;48.854;9.158;2023-08-01T05:12:57;3.57;;;3.27;;
14015;SDS011;7083;48.854;9.158;2023-08-01T05:15:24;3.07;;;2.87;;
14015;SDS011;7083;48.854;9.158;2023-08-01T05:17:52;3.40;;;3.10;;
14015;SDS011;7083;48.854;9.158;2023-08-01T05:20:19;3.47;;;3.17;;
14015;SDS011;7083;48.854;9.158;2023-08-01T05:22:47;3.40;;;3.20;;
14015;SDS011;7083;48.854;9.158;2023-08-01T05:25:13;3.33;;;3.13;;
14015;SDS011;7083;48.854;9.158;2023-08-01T05:27:40;3.10;;;2.90;;
14015;SDS011;7083;48.854;9.158;2023-08-01T05:30:07;4.67;;;3.17;;
14015;SDS011;7083;48.854;9.158;2023-08-01T05:32:35;3.80;;;3.30;;
14015;SDS011;7083;48.854;9.158;2023-08-01T05:35:01;4.23;;;3.30;;
14015;SDS011;7083;48.854;9.158;2023-08-01T05:37:28;3.13;;;2.93;;
14015;SDS011;7083;48.854;9.158;2023-08-01T05:39:56;3.33;;;3.07;;
14015;SDS011;7083;48.854;9.158;2023-08-01T05:42:23;3.77;;;3.00;;
14015;SDS011;7083;48.854;9.158;2023-08-01T05:44:50;5.97;;;3.00;;
14015;SDS011;7083;48.854;9.158;2023-08-01T05:47:16;4.20;;;3.67;;
14015;SDS011;7083;48.854;9.158;2023-08-01T05:49:43;3.80;;;3.50;;
14015;SDS011;7083;48.854;9.158;2023-08-01T05:52:09;4.73;;;4.03;;
14015;SDS011;7083;48.854;9.158;2023-08-01T05:54:36;3.33;;;3.13;;
14015;SDS011;7083;48.854;9.158;2023-08-01T05:57:05;4.27;;;3.87;;
14015;SDS011;7083;48.854;9.158;2023-08-01T05:59:32;4.40;;;4.00;;
14015;SDS011;7083;48.854;9.158;2023-08-01T06:01:58;4.00;;;3.63;;
14015;SDS011;7083;48.854;9.158;2023-08-01T06:04:25;3.83;;;3.50;;
14015;SDS011;7083;48.854;9.158;2023-08-01T06:06:52;3.93;;;3.60;;
14015;SDS011;7083;48.854;9.158;2023-08-01T06:09:19;4.67;;;3.50;;
14015;SDS011;7083;48.854;9.158;2023-08-01T06:11:46;5.60;;;4.07;;
14015;SDS011;7083;48.854;9.158;2023-08-01T06:14:14;6.47;;;3.97;;
14015;SDS011;7083;48.854;9.158;2023-08-01T06:16:41;5.20;;;4.53;;
14015;SDS011;7083;48.854;9.158;2023-08-01T06:19:08;4.73;;;4.33;;
14015;SDS011;7083;48.854;9.158;2023-08-01T06:21:35;5.93;;;3.60;;
14015;SDS011;7083;48.854;9.158;2023-08-01T06:24:01;5.50;;;3.90;;
14015;SDS011;7083;48.854;9.158;2023-08-01T06:26:28;5.10;;;4.40;;
14015;SDS011;7083;48.854;9.158;2023-08-01T06:28:55;5.03;;;4.63;;
14015;SDS011;7083;48.854;9.158;2023-08-01T06:31:23;5.87;;;4.40;;
14015;SDS011;7083;48.854;9.158;2023-08-01T06:33:50;5.70;;;4.50;;
14015;SDS011;7083;48.854;9.158;2023-08-01T06:36:16;5.87;;;4.50;;
14015;SDS011;7083;48.854;9.158;2023-08-01T06:38:43;4.97;;;4.57;;
14015;SDS011;7083;48.854;9.158;2023-08-01T06:41:11;5.33;;;4.83;;
14015;SDS011;7083;48.854;9.158;2023-08-01T06:43:37;5.17;;;4.77;;
14015;SDS011;7083;48.854;9.158;2023-08-01T06:46:04;5.53;;;4.07;;
14015;SDS011;7083;48.854;9.158;2023-08-01T06:48:32;5.93;;;4.60;;
14015;SDS011;7083;48.854;9.158;2023-08-01T06:51:00;6.03;;;5.43;;
14015;SDS011;7083;48.854;9.158;2023-08-01T06:53:27;5.50;;;4.87;;
14015;SDS011;7083;48.854;9.158;2023-08-01T06:55:53;8.73;;;5.77;;
14015;SDS011;7083;48.854;9.158;2023-08-01T06:58:20;7.80;;;6.20;;
14015;SDS011;7083;48.854;9.158;2023-08-01T07:00:47;6.93;;;5.27;;
14015;SDS011;7083;48.854;9.158;2023-08-01T07:03:13;7.93;;;6.23;;
14015;SDS011;7083;48.854;9.158;2023-08-01T07:05:41;6.03;;;5.63;;
14015;SDS011;7083;48.854;9.158;2023-08-01T07:08:08;6.87;;;6.27;;
14015;SDS011;7083;48.854;9.158;2023-08-01T07:10:35;7.27;;;5.67;;
14015;SDS011;7083;48.854;9.158;2023-08-01T07:13:01;6.63;;;6.03;;
14015;SDS011;7083;48.854;9.158;2023-08-01T07:15:29;6.73;;;6.07;;
14015;SDS011;7083;48.854;9.158;2023-08-01T07:17:56;6.83;;;6.13;;
14015;SDS011;7083;48.854;9.158;2023-08-01T07:20:22;7.67;;;6.63;;
14015;SDS011;7083;48.854;9.158;2023-08-01T07:22:51;7.70;;;6.80;;
14015;SDS011;7083;48.854;9.158;2023-08-01T07:25:17;7.10;;;6.37;;
14015;SDS011;7083;48.854;9.158;2023-08-01T07:27:45;7.10;;;6.40;;
14015;SDS011;7083;48.854;9.158;2023-08-01T07:30:12;7.70;;;7.00;;
14015;SDS011;7083;48.854;9.158;2023-08-01T07:32:38;9.40;;;6.20;;
14015;SDS011;7083;48.854;9.158;2023-08-01T07:35:07;6.33;;;5.83;;
14015;SDS011;7083;48.854;9.158;2023-08-01T07:37:34;7.00;;;6.00;;
14015;SDS011;7083;48.854;9.158;2023-08-01T07:40:04;9.30;;;6.17;;
14015;SDS011;7083;48.854;9.158;2023-08-01T07:42:31;6.47;;;5.87;;
14015;SDS011;7083;48.854;9.158;2023-08-01T07:44:58;6.63;;;5.77;;
14015;SDS011;7083;48.854;9.158;2023-08-01T07:47:25;5.93;;;5.43;;
14015;SDS011;7083;48.854;9.158;2023-08-01T07:49:51;7.50;;;5.47;;
14015;SDS011;7083;48.854;9.158;2023-08-01T07:52:18;5.57;;;5.13;;
14015;SDS011;7083;48.854;9.158;2023-08-01T07:54:45;6.40;;;5.37;;
14015;SDS011;7083;48.854;9.158;2023-08-01T07:57:13;6.10;;;4.77;;
14015;SDS011;7083;48.854;9.158;2023-08-01T07:59:40;5.57;;;5.07;;
14015;SDS011;7083;48.854;9.158;2023-08-01T08:02:06;5.23;;;4.73;;
14015;SDS011;7083;48.854;9.158;2023-08-01T08:04:33;5.27;;;4.80;;
14015;SDS011;7083;48.854;9.158;2023-08-01T08:06:59;5.00;;;4.60;;
14015;SDS011;7083;48.854;9.158;2023-08-01T08:09:26;4.80;;;4.00;;
14015;SDS011;7083;48.854;9.158;2023-08-01T08:11:53;4.97;;;4.57;;
14015;SDS011;7083;48.854;9.158;2023-08-01T08:14:23;4.50;;;4.20;;
14015;SDS011;7083;48.854;9.158;2023-08-01T08:16:50;3.60;;;3.30;;
14015;SDS011;7083;48.854;9.158;2023-08-01T08:19:17;4.33;;;3.10;;
14015;SDS011;7083;48.854;9.158;2023-08-01T08:21:43;4.37;;;3.43;;
14015;SDS011;7083;48.854;9.158;2023-08-01T08:24:10;5.10;;;3.30;;
14015;SDS011;7083;48.854;9.158;2023-08-01T08:26:37;4.23;;;3.57;;
14015;SDS011;7083;48.854;9.158;2023-08-01T08:29:04;3.23;;;3.03;;
14015;SDS011;7083;48.854;9.158;2023-08-01T08:31:32;3.33;;;3.13;;
14015;SDS011;7083;48.854;9.158;2023-08-01T08:33:59;6.17;;;3.47;;
14015;SDS011;7083;48.854;9.158;2023-08-01T08:36:26;4.33;;;3.93;;
14015;SDS011;7083;48.854;9.158;2023-08-01T08:38:52;4.30;;;3.40;;
14015;SDS011;7083;48.854;9.158;2023-08-01T08:41:19;3.43;;;3.13;;
14015;SDS011;7083;48.854;9.158;2023-08-01T08:43:47;3.17;;;2.97;;
14015;SDS011;7083;48.854;9.158;2023-08-01T08:46:15;2.90;;;2.70;;
14015;SDS011;7083;48.854;9.158;2023-08-01T08:48:44;3.37;;;3.03;;
14015;SDS011;7083;48.854;9.158;2023-08-01T08:51:11;3.40;;;3.00;;
14015;SDS011;7083;48.854;9.158;2023-08-01T08:53:39;2.50;;;2.40;;
14015;SDS011;7083;48.854;9.158;2023-08-01T08:56:07;3.10;;;2.90;;
14015;SDS011;7083;48.854;9.158;2023-08-01T08:58:35;2.40;;;2.30;;
14015;SDS011;7083;48.854;9.158;2023-08-01T09:01:04;2.70;;;2.60;;
14015;SDS011;7083;48.854;9.158;2023-08-01T09:03:32;2.50;;;2.40;;
14015;SDS011;7083;48.854;9.158;2023-08-01T09:06:02;2.73;;;2.50;;
14015;SDS011;7083;48.854;9.158;2023-08-01T09:08:34;2.30;;;2.20;;
14015;SDS011;7083;48.854;9.158;2023-08-01T09:11:02;2.77;;;2.57;;
14015;SDS011;7083;48.854;9.158;2023-08-01T09:13:29;2.70;;;2.50;;
14015;SDS011;7083;48.854;9.158;2023-08-01T09:15:56;2.60;;;2.40;;
14015;SDS011;7083;48.854;9.158;2023-08-01T09:18:23;2.37;;;2.27;;
14015;SDS011;7083;48.854;9.158;2023-08-01T09:20:50;2.57;;;2.17;;
14015;SDS011;7083;48.854;9.158;2023-08-01T09:23:18;2.23;;;2.13;;
14015;SDS011;7083;48.854;9.158;2023-08-01T09:25:44;2.30;;;2.20;;
14015;SDS011;7083;48.854;9.158;2023-08-01T09:28:15;2.53;;;2.33;;
14015;SDS011;7083;48.854;9.158;2023-08-01T09:30:46;4.17;;;2.60;;
14015;SDS011;7083;48.854;9.158;2023-08-01T09:33:14;2.13;;;2.03;;
14015;SDS011;7083;48.854;9.158;2023-08-01T09:35:40;2.17;;;2.00;;
14015;SDS011;7083;48.854;9.158;2023-08-01T09:38:09;2.10;;;1.90;;
14015;SDS011;7083;48.854;9.158;2023-08-01T09:40:38;2.97;;;1.60;;
14015;SDS011;7083;48.854;9.158;2023-08-01T09:43:05;1.93;;;1.83;;
14015;SDS011;7083;48.854;9.158;2023-08-01T09:45:32;1.60;;;1.50;;
14015;SDS011;7083;48.854;9.158;2023-08-01T09:47:59;1.47;;;1.37;;
14015;SDS011;7083;48.854;9.158;2023-08-01T09:50:26;2.23;;;1.67;;
14015;SDS011;7083;48.854;9.158;2023-08-01T09:52:53;1.07;;;1.07;;
14015;SDS011;7083;48.854;9.158;2023-08-01T09:55:20;1.53;;;1.43;;
14015;SDS011;7083;48.854;9.158;2023-08-01T09:57:54;1.17;;;1.17;;
14015;SDS011;7083;48.854;9.158;2023-08-01T10:00:24;1.67;;;1.57;;
14015;SDS011;7083;48.854;9.158;2023-08-01T10:02:51;1.70;;;1.60;;
14015;SDS011;7083;48.854;9.158;2023-08-01T10:05:19;1.77;;;1.67;;
14015;SDS011;7083;48.854;9.158;2023-08-01T10:07:48;1.57;;;1.50;;
14015;SDS011;7083;48.854;9.158;2023-08-01T10:10:16;2.03;;;1.17;;
14015;SDS011;7083;48.854;9.158;2023-08-01T10:12:44;1.40;;;1.40;;
14015;SDS011;7083;48.854;9.158;2023-08-01T10:15:14;2.27;;;2.07;;
14015;SDS011;7083;48.854;9.158;2023-08-01T10:17:41;1.93;;;1.60;;
14015;SDS011;7083;48.854;9.158;2023-08-01T10:20:09;2.10;;;1.90;;
14015;SDS011;7083;48.854;9.158;2023-08-01T10:22:38;1.10;;;1.10;;
14015;SDS011;7083;48.854;9.158;2023-08-01T10:25:06;1.80;;;1.33;;
14015;SDS011;7083;48.854;9.158;2023-08-01T10:27:34;2.33;;;1.30;;
14015;SDS011;7083;48.854;9.158;2023-08-01T10:30:02;1.00;;;1.00;;
14015;SDS011;7083;48.854;9.158;2023-08-01T10:32:33;1.90;;;1.20;;
14015;SDS011;7083;48.854;9.158;2023-08-01T10:35:00;0.93;;;0.93;;
14015;SDS011;7083;48.854;9.158;2023-08-01T10:37:27;0.87;;;0.87;;
14015;SDS011;7083;48.854;9.158;2023-08-01T10:40:05;1.30;;;1.30;;
14015;SDS011;7083;48.854;9.158;2023-08-01T10:42:37;0.90;;;0.90;;
14015;SDS011;7083;48.854;9.158;2023-08-01T10:45:04;2.20;;;1.10;;
14015;SDS011;7083;48.854;9.158;2023-08-01T10:47:33;1.07;;;1.07;;
14015;SDS011;7083;48.854;9.158;2023-08-01T10:50:00;1.20;;;1.20;;
14015;SDS011;7083;48.854;9.158;2023-08-01T10:52:28;1.20;;;1.20;;
14015;SDS011;7083;48.854;9.158;2023-08-01T10:54:58;1.10;;;1.10;;
14015;SDS011;7083;48.854;9.158;2023-08-01T10:57:26;1.13;;;1.10;;
14015;SDS011;7083;48.854;9.158;2023-08-01T10:59:54;1.20;;;1.20;;
14015;SDS011;7083;48.854;9.158;2023-08-01T11:02:22;1.00;;;1.00;;
14015;SDS011;7083;48.854;9.158;2023-08-01T11:04:58;1.07;;;1.07;;
14015;SDS011;7083;48.854;9.158;2023-08-01T11:07:26;1.30;;;1.30;;
14015;SDS011;7083;48.854;9.158;2023-08-01T11:10:03;1.20;;;1.10;;
14015;SDS011;7083;48.854;9.158;2023-08-01T11:12:31;1.70;;;1.60;;
14015;SDS011;7083;48.854;9.158;2023-08-01T11:15:00;1.20;;;1.20;;
14015;SDS011;7083;48.854;9.158;2023-08-01T11:17:28;1.40;;;1.40;;
14015;SDS011;7083;48.854;9.158;2023-08-01T11:20:01;1.57;;;1.30;;
14015;SDS011;7083;48.854;9.158;2023-08-01T11:22:29;1.40;;;1.30;;
14015;SDS011;7083;48.854;9.158;2023-08-01T11:24:56;1.70;;;1.63;;
14015;SDS011;7083;48.854;9.158;2023-08-01T11:27:23;1.70;;;1.60;;
14015;SDS011;7083;48.854;9.158;2023-08-01T11:29:50;1.80;;;1.70;;
14015;SDS011;7083;48.854;9.158;2023-08-01T11:32:17;1.60;;;1.50;;
14015;SDS011;7083;48.854;9.158;2023-08-01T11:34:45;1.53;;;1.53;;
14015;SDS011;7083;48.854;9.158;2023-08-01T11:37:13;1.77;;;1.67;;
14015;SDS011;7083;48.854;9.158;2023-08-01T11:39:41;1.60;;;1.50;;
14015;SDS011;7083;48.854;9.158;2023-08-01T11:42:08;1.50;;;1.40;;
14015;SDS011;7083;48.854;9.158;2023-08-01T11:44:41;1.73;;;1.63;;
14015;SDS011;7083;48.854;9.158;2023-08-01T11:47:10;1.50;;;1.50;;
14015;SDS011;7083;48.854;9.158;2023-08-01T11:49:37;3.00;;;1.70;;
14015;SDS011;7083;48.854;9.158;2023-08-01T11:52:04;1.77;;;1.63;;
14015;SDS011;7083;48.854;9.158;2023-08-01T11:54:33;3.60;;;1.80;;
14015;SDS011;7083;48.854;9.158;2023-08-01T11:57:10;1.83;;;1.73;;
14015;SDS011;7083;48.854;9.158;2023-08-01T11:59:45;1.50;;;1.40;;
14015;SDS011;7083;48.854;9.158;2023-08-01T12:02:20;1.63;;;1.53;;
14015;SDS011;7083;48.854;9.158;2023-08-01T12:04:48;1.60;;;1.60;;
14015;SDS011;7083;48.854;9.158;2023-08-01T12:07:15;1.57;;;1.57;;
14015;SDS011;7083;48.854;9.158;2023-08-01T12:09:43;2.33;;;2.10;;
14015;SDS011;7083;48.854;9.158;2023-08-01T12:12:10;1.80;;;1.70;;
14015;SDS011;7083;48.854;9.158;2023-08-01T12:14:40;2.07;;;1.57;;
14015;SDS011;7083;48.854;9.158;2023-08-01T12:17:07;1.73;;;1.63;;
14015;SDS011;7083;48.854;9.158;2023-08-01T12:19:34;2.83;;;1.40;;
14015;SDS011;7083;48.854;9.158;2023-08-01T12:22:00;1.73;;;1.63;;
14015;SDS011;7083;48.854;9.158;2023-08-01T12:24:27;3.50;;;2.50;;
14015;SDS011;7083;48.854;9.158;2023-08-01T12:26:55;1.80;;;1.70;;
14015;SDS011;7083;48.854;9.158;2023-08-01T12:29:22;1.40;;;1.40;;
14015;SDS011;7083;48.854;9.158;2023-08-01T12:31:49;2.83;;;1.80;;
14015;SDS011;7083;48.854;9.158;2023-08-01T12:34:16;4.67;;;1.40;;
14015;SDS011;7083;48.854;9.158;2023-08-01T12:36:42;2.30;;;1.50;;
14015;SDS011;7083;48.854;9.158;2023-08-01T12:39:09;1.57;;;1.53;;
14015;SDS011;7083;48.854;9.158;2023-08-01T12:41:36;1.87;;;1.50;;
14015;SDS011;7083;48.854;9.158;2023-08-01T12:44:05;2.33;;;1.40;;
14015;SDS011;7083;48.854;9.158;2023-08-01T12:46:32;1.57;;;1.53;;
14015;SDS011;7083;48.854;9.158;2023-08-01T12:48:58;1.50;;;1.40;;
14015;SDS011;7083;48.854;9.158;2023-08-01T12:51:25;1.63;;;1.53;;
14015;SDS011;7083;48.854;9.158;2023-08-01T12:53:52;1.30;;;1.30;;
14015;SDS011;7083;48.854;9.158;2023-08-01T12:56:18;1.50;;;1.50;;
14015;SDS011;7083;48.854;9.158;2023-08-01T12:58:45;2.03;;;1.83;;
14015;SDS011;7083;48.854;9.158;2023-08-01T13:01:13;1.60;;;1.50;;
14015;SDS011;7083;48.854;9.158;2023-08-01T13:03:40;1.40;;;1.37;;
14015;SDS011;7083;48.854;9.158;2023-08-01T13:06:06;1.23;;;1.20;;
14015;SDS011;7083;48.854;9.158;2023-08-01T13:08:37;1.60;;;1.50;;
14015;SDS011;7083;48.854;9.158;2023-08-01T13:11:09;3.50;;;1.60;;
14015;SDS011;7083;48.854;9.158;2023-08-01T13:13:36;1.93;;;1.83;;
14015;SDS011;7083;48.854;9.158;2023-08-01T13:16:03;2.27;;;1.60;;
14015;SDS011;7083;48.854;9.158;2023-08-01T13:18:31;1.53;;;1.53;;
14015;SDS011;7083;48.854;9.158;2023-08-01T13:20:58;1.80;;;1.63;;
14015;SDS011;7083;48.854;9.158;2023-08-01T13:23:25;1.50;;;1.40;;
14015;SDS011;7083;48.854;9.158;2023-08-01T13:25:52;1.43;;;1.30;;
14015;SDS011;7083;48.854;9.158;2023-08-01T13:28:19;2.30;;;1.57;;
14015;SDS011;7083;48.854;9.158;2023-08-01T13:30:46;2.10;;;2.00;;
14015;SDS011;7083;48.854;9.158;2023-08-01T13:33:12;2.00;;;1.90;;
14015;SDS011;7083;48.854;9.158;2023-08-01T13:35:40;1.20;;;1.20;;
14015;SDS011;7083;48.854;9.158;2023-08-01T13:38:07;1.98;;;1.70;;
14015;SDS011;7083;48.854;9.158;2023-08-01T13:40:34;1.33;;;1.30;;
14015;SDS011;7083;48.854;9.158;2023-08-01T13:43:01;2.22;;;1.40;;
14015;SDS011;7083;48.854;9.158;2023-08-01T13:45:29;1.60;;;1.30;;
14015;SDS011;7083;48.854;9.158;2023-08-01T13:47:57;3.50;;;1.30;;
14015;SDS011;7083;48.854;9.158;2023-08-01T13:50:25;1.30;;;1.30;;
14015;SDS011;7083;48.854;9.158;2023-08-01T13:52:53;1.42;;;1.40;;
14015;SDS011;7083;48.854;9.158;2023-08-01T13:55:20;0.95;;;0.95;;
14015;SDS011;7083;48.854;9.158;2023-08-01T13:57:46;1.30;;;1.27;;
14015;SDS011;7083;48.854;9.158;2023-08-01T14:00:13;1.38;;;1.27;;
14015;SDS011;7083;48.854;9.158;2023-08-01T14:02:40;1.30;;;1.30;;
14015;SDS011;7083;48.854;9.158;2023-08-01T14:05:07;1.05;;;1.05;;
14015;SDS011;7083;48.854;9.158;2023-08-01T14:07:34;1.48;;;1.38;;
14015;SDS011;7083;48.854;9.158;2023-08-01T14:10:03;1.20;;;1.10;;
14015;SDS011;7083;48.854;9.158;2023-08-01T14:12:31;1.55;;;1.45;;
14015;SDS011;7083;48.854;9.158;2023-08-01T14:14:57;1.25;;;1.15;;
14015;SDS011;7083;48.854;9.158;2023-08-01T14:17:24;1.10;;;1.10;;
14015;SDS011;7083;48.854;9.158;2023-08-01T14:19:51;1.40;;;1.30;;
14015;SDS011;7083;48.854;9.158;2023-08-01T14:22:18;3.38;;;1.20;;
14015;SDS011;7083;48.854;9.158;2023-08-01T14:24:44;1.30;;;1.20;;
14015;SDS011;7083;48.854;9.158;2023-08-01T14:27:12;1.30;;;1.20;;
14015;SDS011;7083;48.854;9.158;2023-08-01T14:29:39;2.08;;;1.45;;
14015;SDS011;7083;48.854;9.158;2023-08-01T14:32:07;1.20;;;1.20;;
14015;SDS011;7083;48.854;9.158;2023-08-01T14:34:34;0.98;;;0.98;;
14015;SDS011;7083;48.854;9.158;2023-08-01T14:37:01;2.05;;;1.10;;
14015;SDS011;7083;48.854;9.158;2023-08-01T14:41:55;1.30;;;1.20;;
14015;SDS011;7083;48.854;9.158;2023-08-01T14:44:23;1.35;;;1.30;;
14015;SDS011;7083;48.854;9.158;2023-08-01T14:46:50;1.20;;;1.10;;
14015;SDS011;7083;48.854;9.158;2023-08-01T14:49:19;1.10;;;1.00;;
14015;SDS011;7083;48.854;9.158;2023-08-01T14:51:47;10.63;;;1.77;;
14015;SDS011;7083;48.854;9.158;2023-08-01T14:54:14;1.17;;;1.07;;
14015;SDS011;7083;48.854;9.158;2023-08-01T14:56:41;1.25;;;0.90;;
14015;SDS011;7083;48.854;9.158;2023-08-01T14:59:08;0.80;;;0.80;;
14015;SDS011;7083;48.854;9.158;2023-08-01T15:01:36;1.63;;;1.10;;
14015;SDS011;7083;48.854;9.158;2023-08-01T15:04:03;1.30;;;1.20;;